Mémorial Claude Delobbe

La Petignolaise - Petigny (10.00 km)

samedi 15 juin 2019

Le Classement original se trouve sur : http://www.chronorace.be        
 
CHALLENGE MÉMORIAL CLAUDE DELOBBE
LA PETIGNOLAISE - PETIGNY
DISTANCE : 10.00 km
samedi 15 juin 2019
 
Place Dos NOM Equipe Catégorie Pl/cat temps temps/km Vitesse
1 13 BAIOLET NICOLAS ACCO SH 1 0:38:15 03:49 15.69
2 261 VAN WYNSBERGHE CLEMENT   XXX   0:40:09 04:01 14.95
3 291 PASQUASY FABIEN   VE1 1 0:40:30 04:03 14.82
4 289 HUET LUDOVIC   SH 2 0:41:36 04:10 14.43
5 277 PAILLA BENOIT   VE1 2 0:41:57 04:12 14.31
6 275 BAILLY JONATHAN   SH 3 0:42:41 04:16 14.06
7 32 BROCHARD LOIC ROCROY SPORTS N SH 4 0:43:34 04:21 13.78
8 36 CANCELLI PACCO ROCROY SPORTS N JH 1 0:43:40 04:22 13.74
9 21 VINCENT DROMELET JTRR VE1 3 0:43:49 04:23 13.70
10 63 TOUZEAU JEAN PIERRE JACO VE1 4 0:44:33 04:27 13.47
11 102 NICOLAS JONATHAN COUVINRUN SH 5 0:44:40 04:28 13.44
12 82 LECLERCQ GAËTAN TRAILERS DES FA SH 6 0:44:41 04:28 13.43
13 4 THOMAS DOMINIC JTRR VE2 1 0:44:55 04:29 13.36
14 83 MAUDOUX LIONEL JACO SH 7 0:45:04 04:30 13.32
15 254 ERNEST NICOLAS   SH 8 0:45:46 04:35 13.11
16 39 DESTRÉE THOMAS ACCO SH 9 0:45:58 04:36 13.06
17 50 DE PESTEL BLAISE VAULX SH 10 0:46:17 04:38 12.97
18 5 LENOIR ANDY JTRR VE1 5 0:46:35 04:39 12.88
19 85 MOBIAN FABIEN ROCROY SPORTS N SH 11 0:46:38 04:40 12.87
20 48 LEROY JEAN-PIERRE ACCO VE1 6 0:46:40 04:40 12.86
21 297 LEFEBVRE SEBASTIEN   VE1 7 0:46:42 04:40 12.85
22 80 ROCHETTE ARNAUD   SH 12 0:46:47 04:41 12.83
23 91 DAUSSY EMERIC RUNNING TRAIL T SH 13 0:46:52 04:41 12.81
24 77 NICOLAS SÉBASTIEN ROCROI SPORTS N VE1 8 0:46:58 04:42 12.78
25 79 MARTIN LIONNEL ROCROY SPORTS N VE1 9 0:47:22 04:44 12.67
26 258 PIERRE DAMIEN   SH 14 0:47:50 04:47 12.55
27 257 FOURNAISE MATHIEUR   SH 15 0:47:58 04:48 12.51
28 56 PESTIAUX GREGORY PEARTEAM VE1 10 0:48:30 04:51 12.37
29 6 DELVALLÉE BENOÎT COUVIRUN SH 16 0:49:10 04:55 12.21
30 98 NUYTTEN FRÉDÉRIC ACCO VE1 11 0:49:21 04:56 12.16
31 23 CHATEL DANIEL AC FRONTIÈRES VE3 1 0:49:33 04:57 12.11
32 60 SAMUEL MORAUX U.S.PESCHE VE2 2 0:49:55 04:59 12.02
33 240 NICOLAS JEAN JACQUES   VE2 3 0:49:56 05:00 12.02
34 274 SCHMITZ DELPHINE   SF 1 0:49:57 05:00 12.01
35 104 POUCET FABRICE ACCO VE1 12 0:50:06 05:01 11.98
36 281 BOSQUET JOSE   SH 17 0:50:11 05:01 11.96
37 69 BOTTEAUX FABRICE COUVIRUN SH 18 0:50:15 05:01 11.94
38 233 MAULOYE GEOFFREY   SH 19 0:50:35 05:03 11.86
39 55 DEVILLE PHILIPPE J.T.R.R. VE3 2 0:51:08 05:07 11.74
40 234 SCAILLET VINCENT   VE2 4 0:51:24 05:08 11.68
41 27 MAURENNE FRANÇOIS   VE1 13 0:51:30 05:09 11.65
42 235 DEGEZELLE STEPHANE   VE2 5 0:51:32 05:09 11.65
43 237 SEIGNIER OLIVIER   SH 20 0:51:37 05:10 11.63
44 283 FICHET LAURENT   VE1 14 0:51:41 05:10 11.61
45 22 WINDAL PATRICIA CABW AI2 1 0:51:42 05:10 11.61
46 269 VANDENBERGHE JEROME   SH 21 0:51:46 05:11 11.59
47 280 LEJEUNE ALAIN   VE2 6 0:52:00 05:12 11.54
48 105 RIFFLART DAVID JTRR SH 22 0:52:05 05:12 11.52
49 236 SEINGIER LIONEL   VE1 15 0:52:11 05:13 11.50
50 76 LEROY LUC JACO / THURE VE2 7 0:52:12 05:13 11.50
51 59 GOFFIN PASCAL JTRR VE3 3 0:52:28 05:15 11.44
52 116 GUILLAUME JULIEN JTRR-SHARKS SH 23 0:52:46 05:17 11.37
53 25 JEROME NICOLAS   SH 24 0:52:54 05:17 11.34
54 68 VAN RENTERGHEM ANDRE ACCO VE4 1 0:53:07 05:19 11.30
55 66 GUILLAUME YVES JTRR VE2 8 0:53:11 05:19 11.28
56 71 BELLENGER BRUNO JTRR VE1 16 0:53:16 05:20 11.27
57 87 ROULLE SÉBASTIEN ROCROY SPORTS N SH 25 0:53:22 05:20 11.25
58 242 CORDEWENER ALAIN   VE2 9 0:53:41 05:22 11.18
59 244 DUTERME NICOLAS   SH 26 0:53:45 05:22 11.17
60 288 VANDERMOTTEN LAURENT   VE1 17 0:53:51 05:23 11.14
61 53 DE PESTEL HERVÉ VAULX VE2 10 0:53:58 05:24 11.12
62 253 BERTRAND BRUNO   VE2 11 0:54:04 05:24 11.10
63 296 FICHET DOMINIQUE   VE1 18 0:54:15 05:25 11.06
64 290 DESTREE ALAIN   VE4 2 0:54:31 05:27 11.01
65 268 REGNIER MICHEL   VE2 12 0:54:41 05:28 10.97
66 70 LAHR PHILIPPE JTRR VE1 19 0:54:53 05:29 10.93
67 293 DARDENNE QUENTIN   JH 2 0:55:05 05:30 10.90
68 90 THOMAS PAUL BARRIÈRE VE3 4 0:55:06 05:31 10.89
69 2 HENRARD ETIENNE A.C.FRONTIÈRES VE3 5 0:55:08 05:31 10.89
70 241 COLLART CHRISTOPHE   VE2 13 0:55:19 05:32 10.85
71 18 CONSTANT NICOLAS TRAILERS DES FA VE1 20 0:56:01 05:36 10.71
72 246 ACCARNO JEAN FRANCOIS   VE1 21 0:56:04 05:36 10.70
73 33 FOULON MARIE-CHRISTINE CRAZY BIKERS AI4 1 0:56:09 05:37 10.69
74 251 FOSTOY SABINE   AI2 2 0:56:09 05:37 10.69
75 292 DESTREE MARIE   AI1 1 0:56:15 05:37 10.67
76 93 LABILLOY FLORENT AC FRONTIÈRE SH 27 0:56:39 05:40 10.59
77 285 FICHET JULIEN   JH 3 0:56:50 05:41 10.56
78 99 SOKAY MICHEL LE THURE VE4 3 0:57:40 05:46 10.41
79 260 DERRE SIGRID   AI2 3 0:57:57 05:48 10.36
80 252 DUBUC STEPHANIE   SF 2 0:58:05 05:48 10.33
81 47 GILAIN SOPHIE ACCO AI2 4 0:58:15 05:49 10.30
82 207 HENNARD GENEVIEVE   AI3 1 0:58:39 05:52 10.23
83 108 CAPITAINE STÉPHANIE TDF AI1 2 0:59:09 05:55 10.15
84 113 AUBERT SERGE CHUDONDORGANES VE3 6 0:59:18 05:56 10.12
85 247 STAVAUX INGRID   AI1 3 0:59:43 05:58 10.05
86 67 VINCENT VINCENT DENAYER LA THURE VE2 14 1:00:00 06:00 10.00
87 294 COLALI MASSIMO   SH 28 1:00:01 06:00 10.00
88 245 BOURLARD FREDERIC   VE1 22 1:00:10 06:01 9.97
89 287 MORREELS GODEFROID   VE1 23 1:00:31 06:03 9.92
90 16 COLOT MARIE ACCO SF 3 1:00:41 06:04 9.89
91 298 HOUZE THIERRY   VE1 24 1:01:17 06:08 9.79
92 3 VAN MALLEGHEM SEBASTIEN   VE1 25 1:01:23 06:08 9.78
93 272 MATHIEU JACQUES   VE2 15 1:01:26 06:09 9.77
94 278 CHATEL MERGINE   XXX   1:01:27 06:09 9.77
95 263 PAMART DELPHINE   AI1 4 1:01:44 06:10 9.72
96 78 MARTIN FANNY ROCROY SPORTS N AI1 5 1:02:02 06:12 9.67
97 239 MAMIGNON ARY   SH 29 1:02:20 06:14 9.63
98 282 GUISLAIN ALEXANDRE   SH 30 1:03:06 06:19 9.51
99 51 DE PESTEL COLINE VAULX SF 4 1:03:12 06:19 9.50
100 81 MASSART MARIE TRAILERS DES FA AI1 6 1:03:30 06:21 9.45
101 110 WIAME ANNE FAIREBEL AI1 7 1:03:53 06:23 9.39
102 266 NICOLAS FREDERIK   VE1 26 1:04:00 06:24 9.38
103 8 MAURENNE STÉPHANIE   AI1 8 1:04:16 06:26 9.34
104 7 BIRON SABINE   AI2 5 1:04:30 06:27 9.30
105 259 CORAZZA PHILIPPE   VE2 16 1:05:37 06:34 9.15
106 117 LEMAIRE AYME AC FRONTIERES VE4 4 1:06:11 06:37 9.07
107 10 LENFANT AURORE ROCROI SPORT ET AI1 9 1:06:30 06:39 9.02
108 276 REMY RICHARD   VE4 5 1:06:34 06:39 9.02
109 11 LENFANT MICKAEL ROCROI SPORT ET SH 31 1:06:35 06:39 9.01
110 267 DUPUIS ANNIE   AI3 2 1:07:13 06:43 8.93
111 295 LEMAIRE DOMINIQUE   AI2 6 1:08:43 06:52 8.73
112 279 TASSER CASSY   XXX   1:09:16 06:56 8.66
113 46 GILLE DANIEL SHARKS VE3 7 1:09:58 07:00 8.58
114 238 DUJEUX JULIE   AI1 10 1:11:54 07:11 8.35
115 243 FRANCOIS ARTHUR   XXX   1:11:58 07:12 8.34
116 52 PIRE NATHALIE SHARKS AI3 3 1:12:30 07:15 8.28
117 250 BUYEK PASCAL   VE2 17 1:14:09 07:25 8.09
118 54 DAIX CHRISTIANE   AI2 7 1:14:41 07:28 8.04
119 299 COLLET FRANCE   AI1 11 1:16:30 07:39 7.85
120 286 VAN ROMPAIJ ALAIN   VE3 8 1:16:33 07:39 7.84
121 270 VAES CHANTAL   AI4 2 1:17:35 07:45 7.74
122 271 MOULIN LAURENCE   AI2 8 1:17:36 07:45 7.73
123 29 DULIEU STÉPHANIE LA THURE / CAP AI2 9 1:17:49 07:47 7.71
124 248 STAVAUX ANNE FRANCE   AI1 12 1:18:12 07:49 7.67
125 249 BOUILLET XAVIER   SH 32 1:18:13 07:49 7.67
126 26 GEORGE VALÉRIE JTRR AI2 10 1:19:45 07:58 7.53
127 119 GOUTIERE MARIE JTRR-SHARKS SF 5 1:19:46 07:58 7.52
128 273 DAUSSY THIERRY   VE3 9 1:21:02 08:06 7.41
129 264 PIERRARD CHRISTELLE   AI2 11 1:59:04 11:54 5.04